Hauptseite
METAR-TAF:

METAR-TAF

Flughäfen :

Flughafen Sumburgh

Sumburgh, Shetlandinseln, Schottland

Breite: 59-53N, Länge: 001-18W, Höhe: 5 m

Beobachtung

Neuester Wetterbericht von vor 39 Minuten, um 07:20 UTC
Wind 3 kt aus Nord/Nordost
Temperatur 8°C
Luftfeuchtigkeit 76%
Luftdruck 1028 hPa
Sichtweite 10 km oder mehr
Leicht bewölkt in der Höhe von 3900 ft

METAR: EGPB 180720Z 02003KT 9999 FEW039 08/04 Q1028

Zeit: 08:59 (07:59 UTC)

Prognose

Neuester Wetterbericht von vor 2 Stunden und 59 Minuten, um 05:00 UTC
Gültige Prognose vom 18 um 06 UTC bis 18 um 15 UTC
Wind 6 kt aus Nord/Nordwest
Sichtweite 10 km oder mehr
Leicht bewölkt in der Höhe von 1500 ft
Aufgelockert bewölkt in der Höhe von 2500 ft

TAF: EGPB 180500Z 1806/1815 34006KT 9999 FEW015 SCT025

Wetterbeobachtungen und Prognosen von mehr als 4000 Flughäfen (METAR und TAF Bericht).

Die verfügbaren Stationen werden durch gelbe und rote Markierungen auf der Karte dargestellt.

Führen Sie die Maus auf sie, um den Namen der Station zu sehen.

Darauf klicken, um die Beobachtung von Wetterbeobachtungen und Prognosen zu sehen.

Um die Karte zu ändern : klicken Sie auf den grünen Tasten mit einem schwarzen Kreuz Zum Vergrößern, auf den grünen Button mit einem Gedankenstrich zu verkleinern, oder auf die grünen Pfeile für benachbarte Karten.


METAR-TAF: